Nissho Maru — JD2955 — position and weather

sailwx.info

Track history (hours):
 
Tides and Currents Weather Stations Pressure Air Temp Water Temp Dewpoint Dewpoint Depression Visibility Wind Speed Wind Dir Waves Ship Positions

Nissho Maru

Last reported at 2018-Feb-24 12:01 UTC. Time now 2018-Feb-24 14:45 UTC.
Position N 35°03' E 140°21'.

Length 99 m; draft 6.4 m.

Type: Tanker. MMSI: 431001006.

Date/timePositionNaut miles runAvg speedWind from/ knotsBaromVisibWave heightAir tempDewpointWater temp
2018-Feb-24 12:01N 35°03' E 140°21'715.7
2018-Feb-24 11:34N 34°60' E 140°13'115.3
2018-Feb-24 11:29N 34°59' E 140°12'815.6
2018-Feb-24 10:59N 34°55' E 140°04'1114.6
2018-Feb-24 10:14N 34°52' E 139°51'314.6
2018-Feb-24 10:00N 34°53' E 139°47'714.0
2018-Feb-24 09:30N 34°59' E 139°43'714.4
2018-Feb-24 08:59N 35°07' E 139°45'714.2
2018-Feb-24 08:28N 35°14' E 139°46'612.8
2018-Feb-24 08:00N 35°19' E 139°43'612.6
2018-Feb-24 07:30N 35°25' E 139°45'814.6
2018-Feb-24 06:59N 35°30' E 139°52'714.6
2018-Feb-24 06:30N 35°34' E 139°59'5 9.6
2018-Feb-24 06:00N 35°36' E 140°05'0 0.0
2018-Feb-24 05:29N 35°36' E 140°05'0 0.0
2018-Feb-24 04:59N 35°36' E 140°05'0 0.0
2018-Feb-24 04:29N 35°36' E 140°05'0 0.0
2018-Feb-24 03:59N 35°36' E 140°05'0 0.0
2018-Feb-24 03:29N 35°36' E 140°05'0 0.0
2018-Feb-24 02:59N 35°36' E 140°05'0 0.0
2018-Feb-24 02:29N 35°36' E 140°05'0 0.0
2018-Feb-24 01:59N 35°36' E 140°05'0 0.0
2018-Feb-24 01:29N 35°36' E 140°05'0 0.0
2018-Feb-24 00:59N 35°36' E 140°05'0 0.0
2018-Feb-24 00:29N 35°36' E 140°05'0 0.0
2018-Feb-23 23:59N 35°36' E 140°05'1 2.6
2018-Feb-23 23:31N 35°36' E 140°03'3 5.7
2018-Feb-23 23:00N 35°35' E 139°60'0 0.4
2018-Feb-23 22:30N 35°35' E 139°60'0 0.7
2018-Feb-23 22:00N 35°35' E 139°60'3 6.3
2018-Feb-23 21:29N 35°33' E 139°57'511.1
2018-Feb-23 21:01N 35°29' E 139°52'611.1
2018-Feb-23 20:30N 35°25' E 139°47'511.0
2018-Feb-23 20:00N 35°20' E 139°44'510.2
2018-Feb-23 19:30N 35°15' E 139°47'612.3
2018-Feb-23 19:00N 35°09' E 139°46'714.4
2018-Feb-23 18:30N 35°02' E 139°44'713.5
2018-Feb-23 17:59N 34°55' E 139°45'1312.0
2018-Feb-23 16:53N 34°54' E 140°01'513.9
2018-Feb-23 16:30N 34°57' E 140°07'1213.6
2018-Feb-23 15:37N 35°03' E 140°20'10 0.3
2018-Feb-22 08:19N 34°58' E 140°09'514.7
2018-Feb-22 07:59N 34°56' E 140°04'1314.4
2018-Feb-22 07:03N 34°53' E 139°48'113.5
2018-Feb-22 07:00N 34°53' E 139°47'714.7
2018-Feb-22 06:30N 34°59' E 139°43'715.0
2018-Feb-22 06:00N 35°07' E 139°45'714.6
2018-Feb-22 05:31N 35°14' E 139°46'612.7
2018-Feb-22 05:00N 35°19' E 139°43'713.2
2018-Feb-22 04:30N 35°26' E 139°45'815.3
2018-Feb-22 04:00N 35°30' E 139°53'815.2
2018-Feb-22 03:30N 35°34' E 140°01'5 9.1
2018-Feb-22 03:00N 35°36' E 140°06'0 0.0
2018-Feb-22 02:29N 35°36' E 140°06'0 0.0
2018-Feb-22 01:59N 35°36' E 140°06'0 0.0
2018-Feb-22 01:29N 35°36' E 140°06'0 0.0
2018-Feb-22 00:59N 35°36' E 140°06'0 0.0
2018-Feb-22 00:29N 35°36' E 140°06'0 0.0
2018-Feb-21 23:59N 35°36' E 140°06'0 0.0
2018-Feb-21 23:29N 35°36' E 140°06'0 0.0
2018-Feb-21 22:59N 35°36' E 140°06'0 0.0
2018-Feb-21 22:29N 35°36' E 140°06'0 0.0
2018-Feb-21 21:59N 35°36' E 140°06'0 0.0
2018-Feb-21 21:29N 35°36' E 140°06'0 0.0
2018-Feb-21 20:59N 35°36' E 140°06'0 0.0
2018-Feb-21 20:29N 35°36' E 140°06'0 0.0
2018-Feb-21 19:59N 35°36' E 140°06'0 0.0
2018-Feb-21 19:29N 35°36' E 140°06'0 0.0
2018-Feb-21 18:59N 35°36' E 140°06'0 0.0
2018-Feb-21 18:29N 35°36' E 140°06'0 0.0
2018-Feb-21 17:59N 35°36' E 140°06'0 0.0
2018-Feb-21 17:29N 35°36' E 140°06'0 0.0
2018-Feb-21 16:59N 35°36' E 140°06'0 0.0
2018-Feb-21 16:29N 35°36' E 140°06'0 0.0
2018-Feb-21 15:59N 35°36' E 140°06'0 0.0
2018-Feb-21 15:29N 35°36' E 140°06'0 0.0
2018-Feb-21 14:59N 35°36' E 140°06'0 0.0
2018-Feb-21 14:29N 35°36' E 140°06'0 0.0
2018-Feb-21 13:59N 35°36' E 140°06'0 0.0
2018-Feb-21 13:29N 35°36' E 140°06'0 0.0
2018-Feb-21 12:59N 35°36' E 140°06'0 0.0
2018-Feb-21 12:29N 35°36' E 140°06'0 0.0
2018-Feb-21 11:59N 35°36' E 140°06'0 0.0
2018-Feb-21 11:29N 35°36' E 140°06'0 0.0
2018-Feb-21 10:59N 35°36' E 140°06'0 0.0
2018-Feb-21 10:29N 35°36' E 140°06'0 0.0
2018-Feb-21 09:59N 35°36' E 140°06'0 0.0
2018-Feb-21 09:29N 35°36' E 140°06'0 0.0
2018-Feb-21 08:59N 35°36' E 140°06'0 0.0
2018-Feb-21 08:29N 35°36' E 140°06'0 0.0
2018-Feb-21 07:59N 35°36' E 140°06'0 0.0
2018-Feb-21 07:29N 35°36' E 140°06'0 0.0
2018-Feb-21 06:59N 35°36' E 140°06'0 0.0
2018-Feb-21 06:29N 35°36' E 140°06'0 0.0
2018-Feb-21 05:59N 35°36' E 140°06'0 0.0
2018-Feb-21 05:29N 35°36' E 140°06'0 0.0
2018-Feb-21 04:59N 35°36' E 140°06'0 0.0
2018-Feb-21 04:29N 35°36' E 140°06'0 0.0
2018-Feb-21 03:59N 35°36' E 140°06'0 0.0
2018-Feb-21 03:29N 35°36' E 140°06'0 0.0
2018-Feb-21 02:59N 35°36' E 140°06'0 0.3
2018-Feb-21 02:30N 35°36' E 140°06'2 4.8
2018-Feb-21 02:00N 35°35' E 140°03'4 7.2
2018-Feb-21 01:30N 35°33' E 139°59'4 7.5
2018-Feb-21 01:00N 35°32' E 139°55'4 6.5
2018-Feb-21 00:22N 35°30' E 139°50'0 0.0
2018-Feb-20 23:58N 35°30' E 139°50'0 0.0
2018-Feb-20 23:22N 35°30' E 139°50'0 0.0
2018-Feb-20 22:58N 35°30' E 139°50'0 0.0
2018-Feb-20 22:28N 35°30' E 139°50'0 0.0
2018-Feb-20 21:49N 35°30' E 139°50'0 0.0
2018-Feb-20 21:28N 35°30' E 139°50'0 0.1
2018-Feb-20 20:49N 35°30' E 139°50'0 0.0
2018-Feb-20 20:25N 35°30' E 139°50'0 0.0
2018-Feb-20 19:58N 35°30' E 139°50'0 0.0
2018-Feb-20 19:25N 35°30' E 139°50'0 0.0
2018-Feb-20 18:58N 35°30' E 139°50'0 0.0
2018-Feb-20 18:28N 35°30' E 139°50'0 0.0
2018-Feb-20 17:55N 35°30' E 139°50'0 0.0
2018-Feb-20 17:28N 35°30' E 139°50'0 0.0
2018-Feb-20 16:58N 35°30' E 139°50'0 0.0
2018-Feb-20 16:22N 35°30' E 139°50'0 0.0
2018-Feb-20 15:55N 35°30' E 139°50'0 0.1
2018-Feb-20 15:28N 35°30' E 139°50'0 0.0
2018-Feb-20 14:55N 35°30' E 139°50'0 0.2
2018-Feb-20 14:28N 35°30' E 139°50'0 0.1
2018-Feb-20 13:58N 35°30' E 139°50'0 0.0
2018-Feb-20 13:28N 35°30' E 139°50'0 0.0
2018-Feb-20 12:58N 35°30' E 139°50'0 0.0
2018-Feb-20 12:28N 35°30' E 139°50'0 0.0
2018-Feb-20 11:58N 35°30' E 139°50'0 0.0
2018-Feb-20 11:25N 35°30' E 139°50'0 0.0
2018-Feb-20 10:55N 35°30' E 139°50'0 0.0
2018-Feb-20 10:28N 35°30' E 139°50'0 0.0
2018-Feb-20 09:52N 35°30' E 139°50'0 0.0
2018-Feb-20 09:22N 35°30' E 139°50'0 0.0
2018-Feb-20 08:58N 35°30' E 139°50'0 0.1
2018-Feb-20 08:28N 35°30' E 139°50'0 0.0
2018-Feb-20 07:58N 35°30' E 139°50'2 4.6
2018-Feb-20 07:30N 35°31' E 139°48'1 1.2
2018-Feb-20 06:59N 35°32' E 139°48'0 0.0
2018-Feb-20 06:29N 35°32' E 139°48'0 0.0
2018-Feb-20 05:59N 35°32' E 139°48'0 0.0
2018-Feb-20 05:29N 35°32' E 139°48'0 0.0
2018-Feb-20 04:59N 35°32' E 139°48'0 0.0
2018-Feb-20 04:29N 35°32' E 139°48'0 0.0
2018-Feb-20 03:59N 35°32' E 139°48'0 0.0
2018-Feb-20 03:29N 35°32' E 139°48'0 0.0
2018-Feb-20 02:59N 35°32' E 139°48'0 0.0
2018-Feb-20 02:29N 35°32' E 139°48'0 0.0
2018-Feb-20 01:59N 35°32' E 139°48'1 2.1
2018-Feb-20 01:30N 35°31' E 139°48'2 3.9
2018-Feb-20 01:00N 35°31' E 139°51'0 0.3
2018-Feb-20 00:29N 35°31' E 139°51'0 0.0
2018-Feb-19 23:59N 35°31' E 139°51'0 0.0
2018-Feb-19 23:29N 35°31' E 139°51'0 0.1
2018-Feb-19 22:56N 35°31' E 139°51'3 6.0
2018-Feb-19 22:30N 35°28' E 139°51'713.5
2018-Feb-19 22:00N 35°23' E 139°46'611.6
2018-Feb-19 21:30N 35°17' E 139°45'613.0
2018-Feb-19 21:00N 35°10' E 139°46'714.0
2018-Feb-19 20:30N 35°04' E 139°44'912.5
2018-Feb-19 19:46N 34°55' E 139°46'1411.2
2018-Feb-19 18:33N 34°55' E 140°02'111.7
2018-Feb-19 18:30N 34°55' E 140°03'812.7
2018-Feb-19 17:51N 34°59' E 140°12'1 0.0
2018-Feb-18 10:13N 34°60' E 140°13'414.3
2018-Feb-18 09:57N 34°58' E 140°09'1714.4
2018-Feb-18 08:48N 34°53' E 139°49'915.1
2018-Feb-18 08:13N 34°59' E 139°42'314.8
2018-Feb-18 08:00N 35°02' E 139°43'714.9
2018-Feb-18 07:30N 35°09' E 139°45'713.3
2018-Feb-18 07:00N 35°16' E 139°46'612.8
2018-Feb-18 06:31N 35°22' E 139°42'713.7
2018-Feb-18 06:01N 35°27' E 139°47'5 8.9
2018-Feb-18 05:30N 35°32' E 139°48'0 0.1
2018-Feb-18 05:00N 35°32' E 139°48'0 0.0
2018-Feb-18 04:30N 35°32' E 139°48'0 0.0
2018-Feb-18 04:00N 35°32' E 139°48'0 0.0
2018-Feb-18 03:30N 35°32' E 139°48'0 0.0
2018-Feb-18 03:00N 35°32' E 139°48'0 0.0
2018-Feb-18 02:30N 35°32' E 139°48'0 0.0
2018-Feb-18 02:00N 35°32' E 139°48'0 0.0
2018-Feb-18 01:30N 35°32' E 139°48'0 0.1
2018-Feb-18 01:00N 35°32' E 139°48'1 2.0
2018-Feb-18 00:31N 35°31' E 139°48'2 3.5
2018-Feb-18 00:01N 35°31' E 139°50'0 0.1
2018-Feb-17 23:30N 35°31' E 139°50'0 0.0
2018-Feb-17 23:01N 35°31' E 139°50'0 0.0
2018-Feb-17 22:25N 35°31' E 139°50'0 0.0
2018-Feb-17 21:58N 35°31' E 139°50'0 0.0
2018-Feb-17 21:30N 35°31' E 139°50'0 0.0
2018-Feb-17 21:00N 35°31' E 139°50'0 0.2
2018-Feb-17 20:30N 35°31' E 139°51'4 7.9
2018-Feb-17 20:01N 35°27' E 139°49'713.2
2018-Feb-17 19:30N 35°21' E 139°45'611.8
2018-Feb-17 19:00N 35°16' E 139°47'713.3
2018-Feb-17 18:31N 35°09' E 139°46'713.3
2018-Feb-17 18:00N 35°03' E 139°44'811.8
2018-Feb-17 17:20N 34°55' E 139°45'1412.3
2018-Feb-17 16:12N 34°55' E 140°02'414.0
2018-Feb-17 15:56N 34°56' E 140°07'3 0.1
2018-Feb-16 10:43N 34°58' E 140°09'1713.6
2018-Feb-16 09:29N 34°52' E 139°50'915.1
2018-Feb-16 08:54N 34°58' E 139°42'614.8
2018-Feb-16 08:29N 35°04' E 139°44'715.1
2018-Feb-16 08:00N 35°11' E 139°46'612.7
2018-Feb-16 07:30N 35°18' E 139°44'713.1
2018-Feb-16 07:01N 35°24' E 139°43'714.6
2018-Feb-16 06:30N 35°30' E 139°48'2 3.5
2018-Feb-16 05:58N 35°32' E 139°48'0 0.0
2018-Feb-16 05:28N 35°32' E 139°48'0 0.0
2018-Feb-16 04:55N 35°32' E 139°48'0 0.0
2018-Feb-16 04:28N 35°32' E 139°48'0 0.0
2018-Feb-16 03:58N 35°32' E 139°48'0 0.0
2018-Feb-16 03:28N 35°32' E 139°48'0 0.0
2018-Feb-16 02:58N 35°32' E 139°48'0 0.1
2018-Feb-16 02:25N 35°32' E 139°48'2 4.0
2018-Feb-16 02:00N 35°30' E 139°49'611.8
2018-Feb-16 01:31N 35°25' E 139°47'612.7
2018-Feb-16 01:01N 35°19' E 139°44'612.6
2018-Feb-16 00:30N 35°13' E 139°47'714.0
2018-Feb-16 00:00N 35°06' E 139°46'1213.0
2018-Feb-15 23:06N 34°54' E 139°47'112.9
2018-Feb-15 23:00N 34°53' E 139°48'2114.0
2018-Feb-15 21:32N 35°01' E 140°11'  
Track history (hours):
 
Tides and Currents Weather Stations Pressure Air Temp Water Temp Dewpoint Dewpoint Depression Visibility Wind Speed Wind Dir Waves Ship Positions

Nissho Maru

Last reported at 2018-Feb-24 12:01 UTC. Time now 2018-Feb-24 14:45 UTC.
Position N 35°03' E 140°21'.

Length 99 m; draft 6.4 m.

Type: Tanker. MMSI: 431001006.

Date/timePositionNaut miles runAvg speedWind from/ knotsBaromVisibWave heightAir tempDewpointWater temp
2018-Feb-24 12:01N 35°03' E 140°21'715.7
2018-Feb-24 11:34N 34°60' E 140°13'115.3
2018-Feb-24 11:29N 34°59' E 140°12'815.6
2018-Feb-24 10:59N 34°55' E 140°04'1114.6
2018-Feb-24 10:14N 34°52' E 139°51'314.6
2018-Feb-24 10:00N 34°53' E 139°47'714.0
2018-Feb-24 09:30N 34°59' E 139°43'714.4
2018-Feb-24 08:59N 35°07' E 139°45'714.2
2018-Feb-24 08:28N 35°14' E 139°46'612.8
2018-Feb-24 08:00N 35°19' E 139°43'612.6
2018-Feb-24 07:30N 35°25' E 139°45'814.6
2018-Feb-24 06:59N 35°30' E 139°52'714.6
2018-Feb-24 06:30N 35°34' E 139°59'5 9.6
2018-Feb-24 06:00N 35°36' E 140°05'0 0.0
2018-Feb-24 05:29N 35°36' E 140°05'0 0.0
2018-Feb-24 04:59N 35°36' E 140°05'0 0.0
2018-Feb-24 04:29N 35°36' E 140°05'0 0.0
2018-Feb-24 03:59N 35°36' E 140°05'0 0.0
2018-Feb-24 03:29N 35°36' E 140°05'0 0.0
2018-Feb-24 02:59N 35°36' E 140°05'0 0.0
2018-Feb-24 02:29N 35°36' E 140°05'0 0.0
2018-Feb-24 01:59N 35°36' E 140°05'0 0.0
2018-Feb-24 01:29N 35°36' E 140°05'0 0.0
2018-Feb-24 00:59N 35°36' E 140°05'0 0.0
2018-Feb-24 00:29N 35°36' E 140°05'0 0.0
2018-Feb-23 23:59N 35°36' E 140°05'1 2.6
2018-Feb-23 23:31N 35°36' E 140°03'3 5.7
2018-Feb-23 23:00N 35°35' E 139°60'0 0.4
2018-Feb-23 22:30N 35°35' E 139°60'0 0.7
2018-Feb-23 22:00N 35°35' E 139°60'3 6.3
2018-Feb-23 21:29N 35°33' E 139°57'511.1
2018-Feb-23 21:01N 35°29' E 139°52'611.1
2018-Feb-23 20:30N 35°25' E 139°47'511.0
2018-Feb-23 20:00N 35°20' E 139°44'510.2
2018-Feb-23 19:30N 35°15' E 139°47'612.3
2018-Feb-23 19:00N 35°09' E 139°46'714.4
2018-Feb-23 18:30N 35°02' E 139°44'713.5
2018-Feb-23 17:59N 34°55' E 139°45'1312.0
2018-Feb-23 16:53N 34°54' E 140°01'513.9
2018-Feb-23 16:30N 34°57' E 140°07'1213.6
2018-Feb-23 15:37N 35°03' E 140°20'10 0.3
2018-Feb-22 08:19N 34°58' E 140°09'514.7
2018-Feb-22 07:59N 34°56' E 140°04'1314.4
2018-Feb-22 07:03N 34°53' E 139°48'113.5
2018-Feb-22 07:00N 34°53' E 139°47'714.7
2018-Feb-22 06:30N 34°59' E 139°43'715.0
2018-Feb-22 06:00N 35°07' E 139°45'714.6
2018-Feb-22 05:31N 35°14' E 139°46'612.7
2018-Feb-22 05:00N 35°19' E 139°43'713.2
2018-Feb-22 04:30N 35°26' E 139°45'815.3
2018-Feb-22 04:00N 35°30' E 139°53'815.2
2018-Feb-22 03:30N 35°34' E 140°01'5 9.1
2018-Feb-22 03:00N 35°36' E 140°06'0 0.0
2018-Feb-22 02:29N 35°36' E 140°06'0 0.0
2018-Feb-22 01:59N 35°36' E 140°06'0 0.0
2018-Feb-22 01:29N 35°36' E 140°06'0 0.0
2018-Feb-22 00:59N 35°36' E 140°06'0 0.0
2018-Feb-22 00:29N 35°36' E 140°06'0 0.0
2018-Feb-21 23:59N 35°36' E 140°06'0 0.0
2018-Feb-21 23:29N 35°36' E 140°06'0 0.0
2018-Feb-21 22:59N 35°36' E 140°06'0 0.0
2018-Feb-21 22:29N 35°36' E 140°06'0 0.0
2018-Feb-21 21:59N 35°36' E 140°06'0 0.0
2018-Feb-21 21:29N 35°36' E 140°06'0 0.0
2018-Feb-21 20:59N 35°36' E 140°06'0 0.0
2018-Feb-21 20:29N 35°36' E 140°06'0 0.0
2018-Feb-21 19:59N 35°36' E 140°06'0 0.0
2018-Feb-21 19:29N 35°36' E 140°06'0 0.0
2018-Feb-21 18:59N 35°36' E 140°06'0 0.0
2018-Feb-21 18:29N 35°36' E 140°06'0 0.0
2018-Feb-21 17:59N 35°36' E 140°06'0 0.0
2018-Feb-21 17:29N 35°36' E 140°06'0 0.0
2018-Feb-21 16:59N 35°36' E 140°06'0 0.0
2018-Feb-21 16:29N 35°36' E 140°06'0 0.0
2018-Feb-21 15:59N 35°36' E 140°06'0 0.0
2018-Feb-21 15:29N 35°36' E 140°06'0 0.0
2018-Feb-21 14:59N 35°36' E 140°06'0 0.0
2018-Feb-21 14:29N 35°36' E 140°06'0 0.0
2018-Feb-21 13:59N 35°36' E 140°06'0 0.0
2018-Feb-21 13:29N 35°36' E 140°06'0 0.0
2018-Feb-21 12:59N 35°36' E 140°06'0 0.0
2018-Feb-21 12:29N 35°36' E 140°06'0 0.0
2018-Feb-21 11:59N 35°36' E 140°06'0 0.0
2018-Feb-21 11:29N 35°36' E 140°06'0 0.0
2018-Feb-21 10:59N 35°36' E 140°06'0 0.0
2018-Feb-21 10:29N 35°36' E 140°06'0 0.0
2018-Feb-21 09:59N 35°36' E 140°06'0 0.0
2018-Feb-21 09:29N 35°36' E 140°06'0 0.0
2018-Feb-21 08:59N 35°36' E 140°06'0 0.0
2018-Feb-21 08:29N 35°36' E 140°06'0 0.0
2018-Feb-21 07:59N 35°36' E 140°06'0 0.0
2018-Feb-21 07:29N 35°36' E 140°06'0 0.0
2018-Feb-21 06:59N 35°36' E 140°06'0 0.0
2018-Feb-21 06:29N 35°36' E 140°06'0 0.0
2018-Feb-21 05:59N 35°36' E 140°06'0 0.0
2018-Feb-21 05:29N 35°36' E 140°06'0 0.0
2018-Feb-21 04:59N 35°36' E 140°06'0 0.0
2018-Feb-21 04:29N 35°36' E 140°06'0 0.0
2018-Feb-21 03:59N 35°36' E 140°06'0 0.0
2018-Feb-21 03:29N 35°36' E 140°06'0 0.0
2018-Feb-21 02:59N 35°36' E 140°06'0 0.3
2018-Feb-21 02:30N 35°36' E 140°06'2 4.8
2018-Feb-21 02:00N 35°35' E 140°03'4 7.2
2018-Feb-21 01:30N 35°33' E 139°59'4 7.5
2018-Feb-21 01:00N 35°32' E 139°55'4 6.5
2018-Feb-21 00:22N 35°30' E 139°50'0 0.0
2018-Feb-20 23:58N 35°30' E 139°50'0 0.0
2018-Feb-20 23:22N 35°30' E 139°50'0 0.0
2018-Feb-20 22:58N 35°30' E 139°50'0 0.0
2018-Feb-20 22:28N 35°30' E 139°50'0 0.0
2018-Feb-20 21:49N 35°30' E 139°50'0 0.0
2018-Feb-20 21:28N 35°30' E 139°50'0 0.1
2018-Feb-20 20:49N 35°30' E 139°50'0 0.0
2018-Feb-20 20:25N 35°30' E 139°50'0 0.0
2018-Feb-20 19:58N 35°30' E 139°50'0 0.0
2018-Feb-20 19:25N 35°30' E 139°50'0 0.0
2018-Feb-20 18:58N 35°30' E 139°50'0 0.0
2018-Feb-20 18:28N 35°30' E 139°50'0 0.0
2018-Feb-20 17:55N 35°30' E 139°50'0 0.0
2018-Feb-20 17:28N 35°30' E 139°50'0 0.0
2018-Feb-20 16:58N 35°30' E 139°50'0 0.0
2018-Feb-20 16:22N 35°30' E 139°50'0 0.0
2018-Feb-20 15:55N 35°30' E 139°50'0 0.1
2018-Feb-20 15:28N 35°30' E 139°50'0 0.0
2018-Feb-20 14:55N 35°30' E 139°50'0 0.2
2018-Feb-20 14:28N 35°30' E 139°50'0 0.1
2018-Feb-20 13:58N 35°30' E 139°50'0 0.0
2018-Feb-20 13:28N 35°30' E 139°50'0 0.0
2018-Feb-20 12:58N 35°30' E 139°50'0 0.0
2018-Feb-20 12:28N 35°30' E 139°50'0 0.0
2018-Feb-20 11:58N 35°30' E 139°50'0 0.0
2018-Feb-20 11:25N 35°30' E 139°50'0 0.0
2018-Feb-20 10:55N 35°30' E 139°50'0 0.0
2018-Feb-20 10:28N 35°30' E 139°50'0 0.0
2018-Feb-20 09:52N 35°30' E 139°50'0 0.0
2018-Feb-20 09:22N 35°30' E 139°50'0 0.0
2018-Feb-20 08:58N 35°30' E 139°50'0 0.1
2018-Feb-20 08:28N 35°30' E 139°50'0 0.0
2018-Feb-20 07:58N 35°30' E 139°50'2 4.6
2018-Feb-20 07:30N 35°31' E 139°48'1 1.2
2018-Feb-20 06:59N 35°32' E 139°48'0 0.0
2018-Feb-20 06:29N 35°32' E 139°48'0 0.0
2018-Feb-20 05:59N 35°32' E 139°48'0 0.0
2018-Feb-20 05:29N 35°32' E 139°48'0 0.0
2018-Feb-20 04:59N 35°32' E 139°48'0 0.0
2018-Feb-20 04:29N 35°32' E 139°48'0 0.0
2018-Feb-20 03:59N 35°32' E 139°48'0 0.0
2018-Feb-20 03:29N 35°32' E 139°48'0 0.0
2018-Feb-20 02:59N 35°32' E 139°48'0 0.0
2018-Feb-20 02:29N 35°32' E 139°48'0 0.0
2018-Feb-20 01:59N 35°32' E 139°48'1 2.1
2018-Feb-20 01:30N 35°31' E 139°48'2 3.9
2018-Feb-20 01:00N 35°31' E 139°51'0 0.3
2018-Feb-20 00:29N 35°31' E 139°51'0 0.0
2018-Feb-19 23:59N 35°31' E 139°51'0 0.0
2018-Feb-19 23:29N 35°31' E 139°51'0 0.1
2018-Feb-19 22:56N 35°31' E 139°51'3 6.0
2018-Feb-19 22:30N 35°28' E 139°51'713.5
2018-Feb-19 22:00N 35°23' E 139°46'611.6
2018-Feb-19 21:30N 35°17' E 139°45'613.0
2018-Feb-19 21:00N 35°10' E 139°46'714.0
2018-Feb-19 20:30N 35°04' E 139°44'912.5
2018-Feb-19 19:46N 34°55' E 139°46'1411.2
2018-Feb-19 18:33N 34°55' E 140°02'111.7
2018-Feb-19 18:30N 34°55' E 140°03'812.7
2018-Feb-19 17:51N 34°59' E 140°12'1 0.0
2018-Feb-18 10:13N 34°60' E 140°13'414.3
2018-Feb-18 09:57N 34°58' E 140°09'1714.4
2018-Feb-18 08:48N 34°53' E 139°49'915.1
2018-Feb-18 08:13N 34°59' E 139°42'314.8
2018-Feb-18 08:00N 35°02' E 139°43'714.9
2018-Feb-18 07:30N 35°09' E 139°45'713.3
2018-Feb-18 07:00N 35°16' E 139°46'612.8
2018-Feb-18 06:31N 35°22' E 139°42'713.7
2018-Feb-18 06:01N 35°27' E 139°47'5 8.9
2018-Feb-18 05:30N 35°32' E 139°48'0 0.1
2018-Feb-18 05:00N 35°32' E 139°48'0 0.0
2018-Feb-18 04:30N 35°32' E 139°48'0 0.0
2018-Feb-18 04:00N 35°32' E 139°48'0 0.0
2018-Feb-18 03:30N 35°32' E 139°48'0 0.0
2018-Feb-18 03:00N 35°32' E 139°48'0 0.0
2018-Feb-18 02:30N 35°32' E 139°48'0 0.0
2018-Feb-18 02:00N 35°32' E 139°48'0 0.0
2018-Feb-18 01:30N 35°32' E 139°48'0 0.1
2018-Feb-18 01:00N 35°32' E 139°48'1 2.0
2018-Feb-18 00:31N 35°31' E 139°48'2 3.5
2018-Feb-18 00:01N 35°31' E 139°50'0 0.1
2018-Feb-17 23:30N 35°31' E 139°50'0 0.0
2018-Feb-17 23:01N 35°31' E 139°50'0 0.0
2018-Feb-17 22:25N 35°31' E 139°50'0 0.0
2018-Feb-17 21:58N 35°31' E 139°50'0 0.0
2018-Feb-17 21:30N 35°31' E 139°50'0 0.0
2018-Feb-17 21:00N 35°31' E 139°50'0 0.2
2018-Feb-17 20:30N 35°31' E 139°51'4 7.9
2018-Feb-17 20:01N 35°27' E 139°49'713.2
2018-Feb-17 19:30N 35°21' E 139°45'611.8
2018-Feb-17 19:00N 35°16' E 139°47'713.3
2018-Feb-17 18:31N 35°09' E 139°46'713.3
2018-Feb-17 18:00N 35°03' E 139°44'811.8
2018-Feb-17 17:20N 34°55' E 139°45'1412.3
2018-Feb-17 16:12N 34°55' E 140°02'414.0
2018-Feb-17 15:56N 34°56' E 140°07'3 0.1
2018-Feb-16 10:43N 34°58' E 140°09'1713.6
2018-Feb-16 09:29N 34°52' E 139°50'915.1
2018-Feb-16 08:54N 34°58' E 139°42'614.8
2018-Feb-16 08:29N 35°04' E 139°44'715.1
2018-Feb-16 08:00N 35°11' E 139°46'612.7
2018-Feb-16 07:30N 35°18' E 139°44'713.1
2018-Feb-16 07:01N 35°24' E 139°43'714.6
2018-Feb-16 06:30N 35°30' E 139°48'2 3.5
2018-Feb-16 05:58N 35°32' E 139°48'0 0.0
2018-Feb-16 05:28N 35°32' E 139°48'0 0.0
2018-Feb-16 04:55N 35°32' E 139°48'0 0.0
2018-Feb-16 04:28N 35°32' E 139°48'0 0.0
2018-Feb-16 03:58N 35°32' E 139°48'0 0.0
2018-Feb-16 03:28N 35°32' E 139°48'0 0.0
2018-Feb-16 02:58N 35°32' E 139°48'0 0.1
2018-Feb-16 02:25N 35°32' E 139°48'2 4.0
2018-Feb-16 02:00N 35°30' E 139°49'611.8
2018-Feb-16 01:31N 35°25' E 139°47'612.7
2018-Feb-16 01:01N 35°19' E 139°44'612.6
2018-Feb-16 00:30N 35°13' E 139°47'714.0
2018-Feb-16 00:00N 35°06' E 139°46'1213.0
2018-Feb-15 23:06N 34°54' E 139°47'112.9
2018-Feb-15 23:00N 34°53' E 139°48'2114.0
2018-Feb-15 21:32N 35°01' E 140°11'  

Dump ship's entire track history